Time;durP1;ratioP1;P1;durP2;ratioP2;P2;SDS_P1;SDS_P2;PMS_P1;PMS_P2;Temp;Humidity;BMP_temperature;BMP_pressure;BME280_temperature;BME280_humidity;BME280_pressure;Samples;Min_cycle;Max_cycle;Signal;HPM_P1;HPM_P2
2022/08/25 00:00:46;;;;;;;29.88;26.77;;;20.60;99.90;;;;;;5127350;27;20394;-69
2022/08/25 00:03:12;;;;;;;31.60;27.33;;;20.60;99.90;;;;;;5123712;27;20065;-69
2022/08/25 00:05:38;;;;;;;29.27;25.77;;;20.50;99.90;;;;;;5148180;27;20034;-69
2022/08/25 00:08:05;;;;;;;28.55;25.63;;;20.50;99.90;;;;;;5144747;27;20031;-69
2022/08/25 00:10:33;;;;;;;27.20;24.30;;;20.50;99.90;;;;;;5129743;27;20042;-69
2022/08/25 00:12:59;;;;;;;27.90;24.90;;;20.50;99.90;;;;;;5125900;27;20047;-69
2022/08/25 00:15:26;;;;;;;27.65;24.83;;;20.50;99.90;;;;;;5129075;27;20048;-69
2022/08/25 00:17:51;;;;;;;27.50;24.55;;;20.50;99.90;;;;;;5146343;27;20160;-69
2022/08/25 00:20:17;;;;;;;26.30;23.60;;;20.40;99.90;;;;;;5145324;27;20542;-68
2022/08/25 00:22:44;;;;;;;28.45;25.40;;;20.40;99.90;;;;;;5129158;27;20490;-69
2022/08/25 00:25:11;;;;;;;30.98;25.38;;;20.50;99.90;;;;;;5125836;27;20059;-69
2022/08/25 00:27:37;;;;;;;27.88;25.00;;;20.30;99.90;;;;;;5147378;27;20038;-69
2022/08/25 00:30:04;;;;;;;29.60;25.48;;;20.40;99.90;;;;;;5144188;27;20398;-69
2022/08/25 00:32:30;;;;;;;28.33;25.33;;;20.30;99.90;;;;;;5126352;27;20461;-69
2022/08/25 00:34:56;;;;;;;29.35;26.17;;;20.30;99.90;;;;;;5143239;27;20050;-68
2022/08/25 00:37:22;;;;;;;29.00;25.55;;;20.30;99.90;;;;;;5128345;27;20031;-68
2022/08/25 00:39:48;;;;;;;28.75;25.55;;;20.30;99.90;;;;;;5127429;27;20038;-69
2022/08/25 00:42:14;;;;;;;30.33;27.10;;;20.30;99.90;;;;;;5144226;27;20046;-68
2022/08/25 00:44:42;;;;;;;28.83;25.83;;;20.30;99.90;;;;;;5147140;27;20043;-69
2022/08/25 00:47:08;;;;;;;30.17;26.73;;;20.20;99.90;;;;;;5143370;27;20506;-69
2022/08/25 00:49:56;;;;;;;29.95;25.98;;;20.20;99.90;;;;;;5147804;27;20080;-69
2022/08/25 00:52:27;;;;;;;29.60;26.40;;;20.20;99.90;;;;;;5128747;27;20051;-69
2022/08/25 00:55:00;;;;;;;28.08;25.00;;;20.10;99.90;;;;;;5125422;27;20070;-68
2022/08/25 00:57:33;;;;;;;29.80;26.67;;;20.20;99.90;;;;;;5147725;27;20034;-69
2022/08/25 00:59:59;;;;;;;29.73;25.95;;;20.10;99.90;;;;;;5120873;27;20478;-69
2022/08/25 01:02:25;;;;;;;29.08;25.50;;;20.00;99.90;;;;;;5128719;27;20064;-68
2022/08/25 01:04:50;;;;;;;27.98;25.05;;;20.00;99.90;;;;;;5146688;27;20046;-69
2022/08/25 01:07:19;;;;;;;28.20;25.20;;;20.00;99.90;;;;;;5126613;27;20048;-69
2022/08/25 01:09:47;;;;;;;27.70;24.77;;;19.90;99.90;;;;;;5145496;27;20039;-69
2022/08/25 01:12:13;;;;;;;27.70;24.88;;;20.00;99.90;;;;;;5126311;27;20050;-69
2022/08/25 01:14:39;;;;;;;25.35;22.67;;;19.90;99.90;;;;;;5145068;27;20479;-69
2022/08/25 01:17:04;;;;;;;26.27;23.45;;;19.90;99.90;;;;;;5130551;27;20034;-69
2022/08/25 01:19:32;;;;;;;27.02;24.17;;;19.90;99.90;;;;;;5124787;27;20124;-69
2022/08/25 01:21:58;;;;;;;26.38;23.65;;;19.90;99.90;;;;;;5146829;27;20185;-69
2022/08/25 01:24:35;;;;;;;26.85;24.10;;;19.90;99.90;;;;;;5124269;27;20122;-69
2022/08/25 01:27:01;;;;;;;25.60;22.60;;;19.80;99.90;;;;;;5122275;27;20042;-69
2022/08/25 01:29:27;;;;;;;26.40;23.60;;;19.80;99.90;;;;;;5127834;27;20043;-68
2022/08/25 01:31:57;;;;;;;23.38;21.05;;;19.80;99.90;;;;;;5124175;27;20046;-69
2022/08/25 01:34:24;;;;;;;25.85;22.85;;;19.80;99.90;;;;;;5137552;27;20031;-69
2022/08/25 01:36:51;;;;;;;24.58;21.92;;;19.70;99.90;;;;;;5119279;27;20050;-69
2022/08/25 01:39:17;;;;;;;24.33;21.85;;;19.70;99.90;;;;;;5146732;27;20110;-69
2022/08/25 01:42:08;;;;;;;23.80;21.30;;;19.70;99.90;;;;;;5125592;27;20066;-69
2022/08/25 01:44:36;;;;;;;22.80;20.50;;;19.70;99.90;;;;;;5123114;27;20043;-69
2022/08/25 01:47:03;;;;;;;21.63;19.33;;;19.60;99.90;;;;;;5140344;27;20041;-69
2022/08/25 01:49:29;;;;;;;23.45;20.15;;;19.60;99.90;;;;;;5144257;27;20035;-69
2022/08/25 01:51:59;;;;;;;22.05;19.63;;;19.60;99.90;;;;;;5145054;27;20042;-69
2022/08/25 01:54:25;;;;;;;20.08;17.92;;;19.50;99.90;;;;;;5143225;27;20031;-69
2022/08/25 01:56:50;;;;;;;20.08;18.02;;;19.50;99.90;;;;;;5146500;27;20082;-69
2022/08/25 01:59:18;;;;;;;19.38;16.80;;;19.50;99.90;;;;;;5142397;27;20023;-69
2022/08/25 02:01:44;;;;;;;17.77;15.77;;;19.50;99.90;;;;;;5142566;27;20042;-70
2022/08/25 02:04:11;;;;;;;18.75;16.52;;;19.50;99.90;;;;;;5127280;27;20393;-69
2022/08/25 02:06:38;;;;;;;18.15;15.90;;;19.40;99.90;;;;;;5143163;27;20427;-69
2022/08/25 02:09:13;;;;;;;17.30;15.50;;;19.40;99.90;;;;;;5126005;27;20126;-69
2022/08/25 02:11:45;;;;;;;15.98;14.23;;;19.50;99.90;;;;;;5141902;27;20043;-68
2022/08/25 02:14:15;;;;;;;14.95;13.02;;;19.40;99.90;;;;;;5127524;27;20062;-69
2022/08/25 02:16:47;;;;;;;15.02;13.35;;;19.40;99.90;;;;;;5142616;27;20077;-69
2022/08/25 02:19:13;;;;;;;15.38;12.77;;;19.40;99.90;;;;;;5126894;27;20591;-68
2022/08/25 02:21:39;;;;;;;16.38;12.27;;;19.40;99.90;;;;;;5142687;27;20032;-68
2022/08/25 02:24:05;;;;;;;13.43;11.88;;;19.40;99.90;;;;;;5122585;27;20050;-68
2022/08/25 02:26:32;;;;;;;12.18;10.77;;;19.40;99.90;;;;;;5122277;27;20051;-69
2022/08/25 02:28:58;;;;;;;13.18;10.40;;;19.40;99.90;;;;;;5122717;27;20441;-69
2022/08/25 02:31:24;;;;;;;12.30;9.35;;;19.40;99.90;;;;;;5123338;27;20421;-69
2022/08/25 02:33:51;;;;;;;12.68;9.55;;;19.40;99.90;;;;;;5121099;27;20081;-69
2022/08/25 02:36:17;;;;;;;12.23;9.40;;;19.40;99.90;;;;;;5123787;27;20075;-69
2022/08/25 02:38:43;;;;;;;10.90;7.72;;;19.50;99.90;;;;;;5119950;27;20429;-68
2022/08/25 02:41:13;;;;;;;10.25;7.70;;;19.50;99.90;;;;;;5124057;27;20414;-69
2022/08/25 02:43:42;;;;;;;10.00;7.47;;;19.50;99.90;;;;;;5121508;27;20051;-69
2022/08/25 02:46:11;;;;;;;9.65;7.40;;;19.60;99.90;;;;;;5119430;27;20043;-69
2022/08/25 02:48:38;;;;;;;11.80;7.53;;;19.60;99.90;;;;;;5124084;27;20100;-68
2022/08/25 02:51:05;;;;;;;11.20;7.53;;;19.60;99.90;;;;;;5123917;27;20038;-69
2022/08/25 02:53:32;;;;;;;8.43;7.32;;;19.70;99.90;;;;;;5121865;27;20053;-69
2022/08/25 02:56:01;;;;;;;8.77;7.13;;;19.70;99.90;;;;;;5124677;27;20039;-69
2022/08/25 02:58:29;;;;;;;10.57;7.25;;;19.70;99.90;;;;;;5122299;27;20043;-69
2022/08/25 03:00:55;;;;;;;9.38;6.80;;;19.80;99.90;;;;;;5118867;27;20086;-69
2022/08/25 03:03:21;;;;;;;11.02;7.05;;;19.80;99.90;;;;;;5119354;27;20097;-69
2022/08/25 03:05:49;;;;;;;8.98;6.65;;;19.70;99.90;;;;;;5122071;27;20502;-68
2022/08/25 03:08:15;;;;;;;7.82;6.15;;;19.80;99.90;;;;;;5120493;27;20048;-69
2022/08/25 03:10:44;;;;;;;7.93;6.22;;;19.70;99.90;;;;;;5124493;27;20156;-69
2022/08/25 03:13:13;;;;;;;9.05;6.20;;;19.70;99.90;;;;;;5119344;27;20415;-69
2022/08/25 03:15:41;;;;;;;8.20;6.10;;;19.70;99.90;;;;;;5116730;27;20028;-69
2022/08/25 03:18:07;;;;;;;7.85;6.05;;;19.60;99.90;;;;;;5124083;27;20556;-69
2022/08/25 03:20:34;;;;;;;7.47;5.65;;;19.60;99.90;;;;;;5119413;28;20066;-69
2022/08/25 03:23:04;;;;;;;7.47;5.72;;;19.60;99.90;;;;;;5121546;27;20078;-69
2022/08/25 03:28:14;;;;;;;5.30;4.65;;;19.50;99.90;;;;;;5097393;28;20040;-69
2022/08/25 03:30:43;;;;;;;7.13;5.10;;;19.50;99.90;;;;;;5096445;28;20039;-69
2022/08/25 03:33:09;;;;;;;7.15;4.75;;;19.40;99.90;;;;;;5101653;28;20054;-69
2022/08/25 03:35:35;;;;;;;8.98;5.95;;;19.40;99.90;;;;;;5100371;28;20028;-69
2022/08/25 03:38:01;;;;;;;7.57;5.05;;;19.40;99.90;;;;;;5102741;28;20096;-69
2022/08/25 03:40:27;;;;;;;8.07;5.40;;;19.50;99.90;;;;;;5100467;28;20046;-70
2022/08/25 03:42:55;;;;;;;8.38;5.05;;;19.50;99.90;;;;;;5101299;28;20094;-69
2022/08/25 03:45:22;;;;;;;8.70;5.25;;;19.50;99.90;;;;;;5099718;28;20104;-68
2022/08/25 03:47:50;;;;;;;6.35;4.68;;;19.60;99.90;;;;;;5102360;28;20040;-69
2022/08/25 03:50:17;;;;;;;5.63;4.40;;;19.60;99.90;;;;;;5099071;28;20376;-69
2022/08/25 03:52:44;;;;;;;8.30;4.90;;;19.60;99.90;;;;;;5101328;28;20109;-69
2022/08/25 03:55:13;;;;;;;7.43;4.47;;;19.60;99.90;;;;;;5102268;28;20055;-68
2022/08/25 03:57:39;;;;;;;6.65;4.55;;;19.60;99.90;;;;;;5097434;28;20115;-69
2022/08/25 04:00:09;;;;;;;10.20;4.80;;;19.60;99.90;;;;;;5100026;28;20123;-69
2022/08/25 04:02:35;;;;;;;6.82;4.78;;;19.60;99.90;;;;;;5101340;28;20046;-69
2022/08/25 04:05:00;;;;;;;6.60;5.07;;;19.70;99.90;;;;;;5098950;28;20044;-68
2022/08/25 04:07:26;;;;;;;7.45;4.72;;;19.70;99.90;;;;;;5102030;28;20130;-68
2022/08/25 04:09:54;;;;;;;6.32;4.43;;;19.70;99.90;;;;;;5099571;28;20486;-69
2022/08/25 04:12:20;;;;;;;7.47;4.82;;;19.70;99.90;;;;;;5098447;28;20093;-68
2022/08/25 04:14:46;;;;;;;6.65;4.80;;;19.70;99.90;;;;;;5097857;28;20128;-69
2022/08/25 04:17:12;;;;;;;6.28;4.50;;;19.70;99.90;;;;;;5099799;28;20123;-69
2022/08/25 04:19:38;;;;;;;5.93;4.22;;;19.70;99.90;;;;;;5097597;28;20474;-69
2022/08/25 04:22:05;;;;;;;6.00;4.38;;;19.70;99.90;;;;;;5098704;28;20044;-66
2022/08/25 04:24:31;;;;;;;6.65;4.35;;;19.70;99.90;;;;;;5112210;27;20127;-69
2022/08/25 04:26:56;;;;;;;5.55;4.10;;;19.70;99.90;;;;;;5120953;28;20051;-69
2022/08/25 04:29:24;;;;;;;8.07;4.47;;;19.70;99.90;;;;;;5120026;28;20040;-68
2022/08/25 04:31:51;;;;;;;6.72;4.40;;;19.70;99.90;;;;;;5123482;28;20051;-69
2022/08/25 04:34:19;;;;;;;6.85;4.00;;;19.70;99.90;;;;;;5119990;27;20076;-68
2022/08/25 04:36:44;;;;;;;6.40;4.40;;;19.70;99.90;;;;;;5125561;27;20069;-69
2022/08/25 04:39:12;;;;;;;5.75;4.10;;;19.70;99.90;;;;;;5123128;27;20047;-68
2022/08/25 04:41:38;;;;;;;8.00;4.20;;;19.60;99.90;;;;;;5123679;27;20463;-68
2022/08/25 04:44:05;;;;;;;8.35;4.25;;;19.60;99.90;;;;;;5125548;27;20057;-68
2022/08/25 04:46:33;;;;;;;11.90;4.20;;;19.60;99.90;;;;;;5122360;27;20054;-69
2022/08/25 04:49:00;;;;;;;6.20;4.10;;;19.60;99.90;;;;;;5122121;27;20046;-69
2022/08/25 04:51:30;;;;;;;5.82;3.72;;;19.60;99.90;;;;;;5125456;27;20084;-68
2022/08/25 04:54:01;;;;;;;8.23;3.83;;;19.60;99.90;;;;;;5122979;27;20534;-68
2022/08/25 04:56:28;;;;;;;7.07;3.90;;;19.60;99.90;;;;;;5123011;27;20088;-69
2022/08/25 04:58:55;;;;;;;6.13;3.90;;;19.60;99.90;;;;;;5123491;27;20058;-69
2022/08/25 05:01:23;;;;;;;7.20;3.80;;;19.60;99.90;;;;;;5125919;27;20035;-68
2022/08/25 05:03:58;;;;;;;5.60;3.78;;;19.60;99.90;;;;;;5118304;27;20471;-68
2022/08/25 05:06:25;;;;;;;7.07;4.00;;;19.60;99.90;;;;;;5120387;27;20046;-68
2022/08/25 05:08:51;;;;;;;7.00;3.70;;;19.60;99.90;;;;;;5124093;27;20487;-69
2022/08/25 05:11:18;;;;;;;7.20;3.92;;;19.60;99.90;;;;;;5121680;27;20051;-69
2022/08/25 05:13:46;;;;;;;5.25;3.67;;;19.70;99.90;;;;;;5124730;27;20043;-68
2022/08/25 05:16:12;;;;;;;4.75;3.63;;;19.70;99.90;;;;;;5121865;27;20494;-68
2022/08/25 05:18:41;;;;;;;6.32;4.22;;;19.70;99.90;;;;;;5124630;27;20086;-68
2022/08/25 05:21:13;;;;;;;5.95;3.58;;;19.70;99.90;;;;;;5123328;27;20043;-69
2022/08/25 05:23:42;;;;;;;6.68;3.95;;;19.70;99.90;;;;;;5130315;27;20051;-69
2022/08/25 05:26:11;;;;;;;6.20;4.00;;;19.70;99.90;;;;;;5125029;27;20104;-69
2022/08/25 05:28:42;;;;;;;5.13;3.90;;;19.80;99.90;;;;;;5125121;27;20051;-68
2022/08/25 05:31:11;;;;;;;7.00;3.70;;;19.80;99.90;;;;;;5143327;27;20481;-69
2022/08/25 05:33:43;;;;;;;6.07;3.42;;;19.80;99.90;;;;;;5127781;27;20084;-68
2022/08/25 05:36:14;;;;;;;7.05;3.70;;;19.80;99.90;;;;;;5141983;27;20835;-69
2022/08/25 05:38:40;;;;;;;7.00;4.10;;;19.80;99.90;;;;;;5128066;27;20430;-69
2022/08/25 05:41:12;;;;;;;5.72;4.15;;;19.90;99.90;;;;;;5143004;27;20039;-68
2022/08/25 05:43:39;;;;;;;6.80;3.92;;;19.90;99.90;;;;;;5123299;27;20031;-68
2022/08/25 05:46:05;;;;;;;7.25;3.58;;;20.00;99.90;;;;;;5142351;27;20436;-69
2022/08/25 05:48:31;;;;;;;6.97;3.90;;;20.00;99.90;;;;;;5127178;27;20403;-68
2022/08/25 05:50:59;;;;;;;5.65;3.83;;;20.00;99.90;;;;;;5143313;27;20035;-70
2022/08/25 05:53:27;;;;;;;6.85;4.13;;;20.10;99.90;;;;;;5126143;27;20031;-69
2022/08/25 05:55:54;;;;;;;8.82;4.03;;;20.10;99.90;;;;;;5125467;27;20039;-69
2022/08/25 05:58:21;;;;;;;4.97;3.80;;;20.20;99.90;;;;;;5120703;27;20043;-72
2022/08/25 06:00:47;;;;;;;5.65;3.75;;;20.20;99.90;;;;;;5143458;27;20039;-68
2022/08/25 06:03:13;;;;;;;6.15;3.90;;;20.30;99.90;;;;;;5127068;27;20500;-69
2022/08/25 06:05:39;;;;;;;7.78;4.00;;;20.30;99.90;;;;;;5123829;27;20060;-69
2022/08/25 06:08:06;;;;;;;5.45;3.78;;;20.40;99.90;;;;;;5137847;27;20179;-69
2022/08/25 06:10:32;;;;;;;7.95;3.88;;;20.40;99.90;;;;;;5141519;27;20497;-69
2022/08/25 06:12:57;;;;;;;6.65;3.80;;;20.50;99.90;;;;;;5142161;27;20034;-69
2022/08/25 06:15:27;;;;;;;6.15;3.70;;;20.50;99.90;;;;;;5123441;27;20050;-68
2022/08/25 06:18:00;;;;;;;7.20;4.18;;;20.60;99.90;;;;;;5124378;27;20046;-69
2022/08/25 06:20:29;;;;;;;5.90;3.92;;;20.60;99.90;;;;;;5126670;27;20050;-68
2022/08/25 06:22:55;;;;;;;5.90;3.70;;;20.70;99.90;;;;;;5124578;27;20046;-70
2022/08/25 06:25:25;;;;;;;5.53;3.80;;;20.80;99.90;;;;;;5122448;27;20383;-69
2022/08/25 06:27:52;;;;;;;5.15;4.10;;;20.80;99.90;;;;;;5123175;27;20049;-69
2022/08/25 06:30:21;;;;;;;5.45;3.75;;;21.00;99.90;;;;;;5125482;27;20050;-68
2022/08/25 06:32:48;;;;;;;9.20;3.80;;;21.00;99.90;;;;;;5143456;27;20398;-68
2022/08/25 06:35:17;;;;;;;5.20;3.72;;;21.10;99.90;;;;;;5143992;27;20049;-69
2022/08/25 06:37:43;;;;;;;7.78;4.00;;;21.20;99.90;;;;;;5124972;27;20122;-69
2022/08/25 06:40:13;;;;;;;6.93;3.88;;;21.20;99.90;;;;;;5143038;27;20375;-68
2022/08/25 06:42:42;;;;;;;5.65;4.07;;;21.30;99.90;;;;;;5141485;27;20431;-69
2022/08/25 06:45:08;;;;;;;7.30;3.90;;;21.40;99.90;;;;;;5123490;27;20100;-69
2022/08/25 06:47:34;;;;;;;4.30;3.53;;;21.50;99.90;;;;;;5145026;27;20041;-69
2022/08/25 06:50:02;;;;;;;5.22;3.78;;;21.60;99.90;;;;;;5118703;27;20039;-69
2022/08/25 06:52:31;;;;;;;5.82;3.65;;;21.70;99.90;;;;;;5119570;27;20047;-69
2022/08/25 06:54:57;;;;;;;6.50;3.90;;;21.80;99.90;;;;;;5144233;27;20038;-69
2022/08/25 06:57:22;;;;;;;7.35;3.80;;;21.90;99.90;;;;;;5123704;27;20047;-70
2022/08/25 06:59:48;;;;;;;6.70;4.10;;;21.90;99.90;;;;;;5124588;27;20042;-70
2022/08/25 07:02:14;;;;;;;5.05;3.80;;;22.10;99.80;;;;;;5142947;27;20042;-69
2022/08/25 07:04:39;;;;;;;6.30;4.10;;;22.20;99.80;;;;;;5142702;27;20042;-69
2022/08/25 07:07:05;;;;;;;9.63;4.60;;;22.20;99.50;;;;;;5122473;27;20139;-69
2022/08/25 07:09:30;;;;;;;6.18;3.70;;;22.30;99.50;;;;;;5145262;27;20066;-70
2022/08/25 07:11:56;;;;;;;6.93;3.53;;;22.40;99.80;;;;;;5122610;27;20043;-69
2022/08/25 07:14:22;;;;;;;5.75;3.78;;;22.50;99.60;;;;;;5125443;27;20432;-69
2022/08/25 07:16:48;;;;;;;4.65;3.53;;;22.50;99.40;;;;;;5124043;27;20039;-69
2022/08/25 07:19:14;;;;;;;7.43;4.00;;;22.60;99.30;;;;;;5141196;27;20043;-69
2022/08/25 07:21:44;;;;;;;6.93;3.53;;;23.10;99.20;;;;;;5124208;27;20339;-70
2022/08/25 07:24:12;;;;;;;6.03;3.50;;;24.20;98.40;;;;;;5123775;27;20147;-70
2022/08/25 07:26:41;;;;;;;5.72;3.35;;;25.20;96.50;;;;;;5143480;27;20039;-69
2022/08/25 07:29:21;;;;;;;6.50;3.50;;;26.20;94.90;;;;;;5123064;27;20035;-69
2022/08/25 07:31:47;;;;;;;5.55;3.05;;;26.90;93.10;;;;;;5123289;27;20047;-70
2022/08/25 07:36:58;;;;;;;4.88;3.03;;;28.30;92.30;;;;;;5137616;27;20043;-69
2022/08/25 07:39:25;;;;;;;5.90;3.30;;;28.90;91.50;;;;;;5145074;27;20083;-69
2022/08/25 07:41:52;;;;;;;5.00;2.90;;;29.10;91.10;;;;;;5136445;27;20049;-70
2022/08/25 07:44:18;;;;;;;8.80;2.95;;;29.60;90.60;;;;;;5125436;27;20145;-69
2022/08/25 07:46:43;;;;;;;6.13;2.60;;;30.00;89.50;;;;;;5123418;27;20096;-69
2022/08/25 07:49:09;;;;;;;4.93;2.95;;;30.50;90.20;;;;;;5125406;27;20926;-70
2022/08/25 07:51:35;;;;;;;4.85;3.20;;;30.70;88.40;;;;;;5125044;27;20394;-70
2022/08/25 07:54:00;;;;;;;4.75;2.50;;;30.90;87.70;;;;;;5123499;27;20039;-69
2022/08/25 07:56:26;;;;;;;4.55;2.60;;;31.10;86.50;;;;;;5143409;27;20454;-70
2022/08/25 07:58:52;;;;;;;4.35;2.53;;;31.30;86.60;;;;;;5140748;27;20032;-69
2022/08/25 08:01:20;;;;;;;3.90;2.63;;;31.50;85.90;;;;;;5125089;27;20038;-70
2022/08/25 08:03:46;;;;;;;5.38;2.40;;;31.60;86.20;;;;;;5116536;28;20470;-70
2022/08/25 08:06:15;;;;;;;7.97;2.78;;;31.90;84.70;;;;;;5125574;27;20504;-70
2022/08/25 08:08:44;;;;;;;4.57;2.70;;;32.00;83.20;;;;;;5123076;27;20050;-70
2022/08/25 08:11:29;;;;;;;4.63;2.50;;;32.20;82.90;;;;;;5126294;27;20043;-70
2022/08/25 08:13:56;;;;;;;6.07;2.33;;;32.40;82.90;;;;;;5142278;27;20483;-70
2022/08/25 08:16:24;;;;;;;5.43;2.50;;;32.80;83.20;;;;;;5147775;27;20382;-70
2022/08/25 08:18:50;;;;;;;4.57;2.40;;;33.00;81.10;;;;;;5143364;27;20053;-70
2022/08/25 08:21:25;;;;;;;5.63;2.47;;;33.30;82.60;;;;;;5148466;27;20050;-70
2022/08/25 08:23:55;;;;;;;5.13;2.47;;;33.50;80.40;;;;;;5122848;27;20142;-70
2022/08/25 08:26:22;;;;;;;3.28;2.20;;;33.50;79.80;;;;;;5147227;27;20401;-70
2022/08/25 08:28:50;;;;;;;6.45;2.17;;;33.50;80.40;;;;;;5126132;27;20039;-70
2022/08/25 08:31:18;;;;;;;3.83;2.38;;;33.50;81.50;;;;;;5146873;27;20039;-70
2022/08/25 08:33:49;;;;;;;4.40;2.88;;;33.60;79.70;;;;;;5129407;27;20030;-70
2022/08/25 08:36:15;;;;;;;6.28;2.70;;;33.50;79.30;;;;;;5141276;27;20057;-70
2022/08/25 08:38:42;;;;;;;6.68;2.45;;;33.60;77.70;;;;;;5128787;27;20477;-69
2022/08/25 08:44:16;;;;;;;6.75;2.47;;;33.70;78.40;;;;;;5128324;27;20039;-70
2022/08/25 08:47:10;;;;;;;4.18;2.17;;;33.60;78.50;;;;;;5139390;27;20043;-70
2022/08/25 08:49:48;;;;;;;4.03;2.38;;;33.90;78.20;;;;;;5143799;27;20394;-70
2022/08/25 08:52:17;;;;;;;3.10;2.22;;;34.00;77.80;;;;;;5140677;27;20051;-70
2022/08/25 08:54:54;;;;;;;5.30;2.38;;;34.10;79.10;;;;;;5144600;27;20083;-70
2022/08/25 08:57:26;;;;;;;4.30;2.42;;;34.20;77.40;;;;;;5128339;27;20129;-70
2022/08/25 08:59:58;;;;;;;4.65;2.47;;;34.40;76.80;;;;;;5128611;27;20043;-70
2022/08/25 09:02:34;;;;;;;8.05;2.30;;;34.30;77.30;;;;;;5143485;27;20478;-70
2022/08/25 09:05:04;;;;;;;6.32;2.28;;;34.60;76.10;;;;;;5145776;27;20035;-70
2022/08/25 09:07:49;;;;;;;4.78;2.30;;;34.60;76.00;;;;;;5125713;27;20062;-70
2022/08/25 09:10:19;;;;;;;4.23;2.47;;;34.80;76.80;;;;;;5123653;27;20054;-71
2022/08/25 09:13:08;;;;;;;4.68;2.45;;;34.70;76.30;;;;;;5146315;27;20117;-70
2022/08/25 09:18:43;;;;;;;5.57;2.20;;;34.80;75.10;;;;;;5118593;27;20043;-70
2022/08/25 09:21:27;;;;;;;4.03;2.33;;;35.00;76.00;;;;;;5120263;27;20043;-70
2022/08/25 09:24:14;;;;;;;5.63;2.47;;;34.80;74.00;;;;;;5144075;27;20054;-71
2022/08/25 09:27:05;;;;;;;5.90;2.35;;;34.90;75.20;;;;;;5140639;27;20075;-70
2022/08/25 09:30:07;;;;;;;4.10;2.08;;;35.00;75.60;;;;;;5143005;27;20092;-70
2022/08/25 09:33:03;;;;;;;6.20;2.22;;;35.30;74.60;;;;;;5120863;27;20074;-70
2022/08/25 09:35:33;;;;;;;;;;;34.70;73.90;;;;;;5115687;27;20050;-71
2022/08/25 09:38:01;;;;;;;4.68;2.30;;;34.50;74.30;;;;;;5125153;27;19920;-70
2022/08/25 09:40:29;;;;;;;5.43;2.50;;;34.50;74.90;;;;;;5146238;27;20423;-70
2022/08/25 09:42:58;;;;;;;4.70;2.15;;;34.70;75.20;;;;;;5124431;27;20095;-70
2022/08/25 09:46:09;;;;;;;4.35;1.88;;;34.70;72.20;;;;;;5127842;27;20414;-70
2022/08/25 09:49:07;;;;;;;4.45;2.30;;;35.10;72.20;;;;;;5124350;27;20051;-70
2022/08/25 09:51:38;;;;;;;3.65;2.03;;;34.90;72.20;;;;;;5115687;27;20051;-70
2022/08/25 09:54:16;;;;;;;3.67;1.90;;;34.90;71.80;;;;;;5146331;27;20068;-70
2022/08/25 09:56:58;;;;;;;6.93;2.20;;;34.80;71.90;;;;;;5125040;27;20055;-70
2022/08/25 09:59:29;;;;;;;4.45;2.22;;;35.10;72.40;;;;;;5143572;27;20086;-70
2022/08/25 10:02:01;;;;;;;3.88;1.83;;;35.30;72.50;;;;;;5127450;27;20035;-70
2022/08/25 10:04:35;;;;;;;4.82;2.03;;;35.20;71.20;;;;;;5122873;27;20047;-70
2022/08/25 10:07:04;;;;;;;4.50;2.10;;;34.60;71.60;;;;;;5122244;27;20084;-70
2022/08/25 10:09:36;;;;;;;3.58;1.90;;;34.80;70.80;;;;;;5127829;27;20374;-68
2022/08/25 10:12:23;;;;;;;4.10;2.10;;;34.80;72.00;;;;;;5142218;27;20039;-68
2022/08/25 10:14:50;;;;;;;3.25;1.77;;;35.10;70.60;;;;;;5125349;27;20057;-68
2022/08/25 10:17:23;;;;;;;4.10;1.80;;;35.30;70.70;;;;;;5144156;27;20047;-69
2022/08/25 10:19:54;;;;;;;4.65;1.90;;;35.30;69.40;;;;;;5139296;27;20063;-69
2022/08/25 10:22:30;;;;;;;6.10;1.83;;;35.00;69.60;;;;;;5127037;27;20098;-68
2022/08/25 10:24:56;;;;;;;6.30;1.90;;;35.10;70.00;;;;;;5137558;27;20062;-70
2022/08/25 10:27:37;;;;;;;3.63;1.90;;;35.30;71.00;;;;;;5145708;27;20042;-69
2022/08/25 10:30:15;;;;;;;6.55;1.92;;;35.30;67.70;;;;;;5122372;27;20431;-69
2022/08/25 10:33:14;;;;;;;4.68;2.30;;;35.20;70.00;;;;;;5125508;27;20076;-69
2022/08/25 10:36:03;;;;;;;2.80;1.70;;;35.30;68.10;;;;;;5123965;27;20039;-68
2022/08/25 10:38:57;;;;;;;4.57;1.73;;;35.10;67.90;;;;;;5120625;27;20035;-68
2022/08/25 10:41:26;;;;;;;5.25;2.03;;;35.00;67.90;;;;;;5138309;27;20059;-68
2022/08/25 10:45:41;;;;;;;5.15;1.75;;;35.20;69.00;;;;;;5119935;27;20046;-69
2022/08/25 10:47:18;;;;;;;3.45;1.85;;;35.50;67.20;;;;;;5137561;27;20439;-69
2022/08/25 10:49:53;;;;;;;4.45;1.80;;;35.90;67.20;;;;;;5126148;27;20061;-70
2022/08/25 10:52:38;;;;;;;4.10;1.80;;;36.00;66.70;;;;;;5136671;27;20046;-69
2022/08/25 10:55:17;;;;;;;3.40;1.97;;;36.30;67.10;;;;;;5141528;27;20046;-70
2022/08/25 10:58:28;;;;;;;5.10;1.73;;;36.50;67.10;;;;;;5142544;27;20035;-70
2022/08/25 11:01:06;;;;;;;6.05;2.10;;;36.50;66.90;;;;;;5093489;27;20051;-70
2022/08/25 11:03:49;;;;;;;3.38;1.85;;;36.30;66.40;;;;;;5125361;27;20613;-69
2022/08/25 11:06:33;;;;;;;6.97;2.13;;;36.20;68.40;;;;;;5125860;27;20046;-69
2022/08/25 11:09:04;;;;;;;3.80;1.90;;;36.30;66.10;;;;;;5139303;27;20038;-70
2022/08/25 11:12:07;;;;;;;3.55;1.60;;;36.60;66.50;;;;;;5125088;27;20035;-70
2022/08/25 11:14:38;;;;;;;4.35;1.80;;;36.60;65.30;;;;;;5122554;27;20126;-70
2022/08/25 11:17:23;;;;;;;5.82;2.05;;;36.40;66.20;;;;;;5124078;27;20047;-70
2022/08/25 11:19:53;;;;;;;6.25;2.03;;;36.40;67.10;;;;;;5119781;27;20043;-70
2022/08/25 11:22:28;;;;;;;2.78;1.58;;;36.70;65.60;;;;;;5142200;27;20074;-70
2022/08/25 11:25:21;;;;;;;5.03;1.80;;;36.70;65.10;;;;;;5121724;27;20046;-70
2022/08/25 11:27:58;;;;;;;3.60;1.60;;;36.80;64.30;;;;;;5115112;27;20058;-70
2022/08/25 11:30:24;;;;;;;3.95;1.80;;;36.70;65.60;;;;;;5121935;27;20538;-69
2022/08/25 11:32:52;;;;;;;3.15;1.67;;;36.70;64.70;;;;;;5120904;28;20122;-69
2022/08/25 11:35:26;;;;;;;3.75;1.90;;;36.90;64.50;;;;;;5123139;27;20035;-70
2022/08/25 11:37:55;;;;;;;7.40;2.40;;;36.60;65.70;;;;;;5121082;28;20128;-70
2022/08/25 11:40:43;;;;;;;4.80;2.22;;;36.60;66.30;;;;;;5122161;28;20146;-70
2022/08/25 11:43:52;;;;;;;4.50;2.25;;;36.50;66.20;;;;;;5121403;28;20051;-70
2022/08/25 11:46:53;;;;;;;6.28;2.20;;;36.70;66.30;;;;;;5122299;27;20046;-69
2022/08/25 11:49:27;;;;;;;3.25;1.90;;;36.60;66.40;;;;;;5120580;27;20154;-70
2022/08/25 11:51:53;;;;;;;3.38;2.20;;;36.70;64.80;;;;;;5125290;27;20035;-70
2022/08/25 11:54:27;;;;;;;3.22;2.17;;;36.60;65.90;;;;;;5124439;27;20046;-70
2022/08/25 11:57:16;;;;;;;3.92;2.40;;;36.60;67.40;;;;;;5124546;27;20504;-69
2022/08/25 12:00:13;;;;;;;8.25;2.53;;;36.70;66.70;;;;;;5120122;27;20036;-69
2022/08/25 12:02:47;;;;;;;4.00;2.03;;;36.90;65.60;;;;;;5118664;27;20135;-69
2022/08/25 12:05:16;;;;;;;4.72;2.10;;;37.00;65.30;;;;;;5119967;27;20047;-69
2022/08/25 12:10:55;;;;;;;4.75;2.30;;;36.80;64.60;;;;;;5121050;27;20047;-69
2022/08/25 12:13:24;;;;;;;5.03;1.85;;;36.70;65.90;;;;;;5126052;27;20050;-69
2022/08/25 12:15:50;;;;;;;4.93;1.80;;;36.80;64.90;;;;;;5124421;27;20124;-70
2022/08/25 12:18:38;;;;;;;4.63;1.90;;;36.60;65.00;;;;;;5124804;27;20129;-69
2022/08/25 12:21:04;;;;;;;5.03;1.98;;;36.50;65.20;;;;;;5120472;27;20038;-69
2022/08/25 12:23:33;;;;;;;4.18;2.20;;;36.50;65.30;;;;;;5125922;27;20059;-70
2022/08/25 12:26:33;;;;;;;3.65;2.13;;;36.50;65.50;;;;;;5129221;27;20047;-69
2022/08/25 12:29:02;;;;;;;3.10;2.00;;;36.50;65.00;;;;;;5109725;27;20448;-69
2022/08/25 12:32:12;;;;;;;3.92;1.98;;;36.40;64.00;;;;;;5144571;27;20106;-69
2022/08/25 12:34:47;;;;;;;5.55;1.92;;;36.20;65.30;;;;;;5088035;27;20047;-69
2022/08/25 12:37:14;;;;;;;3.70;1.92;;;36.20;65.50;;;;;;5146643;27;20087;-69
2022/08/25 12:40:02;;;;;;;4.22;2.08;;;36.00;65.20;;;;;;5136958;27;20470;-69
2022/08/25 12:42:35;;;;;;;8.20;2.10;;;35.90;65.50;;;;;;5126349;27;20499;-69
2022/08/25 12:45:13;;;;;;;5.75;2.25;;;36.10;65.30;;;;;;5138938;27;20460;-69
2022/08/25 12:47:43;;;;;;;4.47;1.95;;;36.00;65.20;;;;;;5123516;27;20043;-69
2022/08/25 12:50:42;;;;;;;4.82;1.73;;;36.00;65.90;;;;;;5146657;27;20051;-69
2022/08/25 12:53:14;;;;;;;3.38;1.90;;;35.70;65.50;;;;;;5089036;27;20502;-69
2022/08/25 12:55:52;;;;;;;3.75;2.10;;;35.50;65.80;;;;;;5145824;27;20046;-69
2022/08/25 12:58:18;;;;;;;3.40;1.98;;;35.50;66.00;;;;;;5128138;27;20107;-68
2022/08/25 13:01:13;;;;;;;2.70;1.73;;;35.30;64.70;;;;;;5145283;27;20470;-70
2022/08/25 13:04:08;;;;;;;3.15;1.90;;;35.20;65.40;;;;;;5139771;27;20035;-69
2022/08/25 13:07:00;;;;;;;3.88;1.80;;;34.90;64.50;;;;;;5098584;27;20051;-69
2022/08/25 13:10:06;;;;;;;3.53;1.90;;;34.70;66.10;;;;;;5112728;27;20512;-69
2022/08/25 13:12:56;;;;;;;6.07;2.00;;;34.60;66.20;;;;;;5121689;27;20042;-69
2022/08/25 13:15:37;;;;;;;5.38;1.90;;;34.50;65.70;;;;;;5142964;27;20477;-69
2022/08/25 13:18:18;;;;;;;3.97;1.90;;;34.40;64.90;;;;;;5122283;27;20501;-69
2022/08/25 13:20:46;;;;;;;3.35;1.95;;;34.40;65.10;;;;;;5144489;27;20039;-69